Time;durP1;ratioP1;P1;durP2;ratioP2;P2;SDS_P1;SDS_P2;PMS_P1;PMS_P2;Temp;Humidity;BMP_temperature;BMP_pressure;BME280_temperature;BME280_humidity;BME280_pressure;Samples;Min_cycle;Max_cycle;Signal;HPM_P1;HPM_P2
2022/10/16 00:00:31;;;;;;;8.00;2.63;;;11.50;99.90;;;;;;5152300;27;20042;-45
2022/10/16 00:02:57;;;;;;;11.57;3.05;;;11.60;99.90;;;;;;5139290;27;20054;-45
2022/10/16 00:05:22;;;;;;;7.03;2.88;;;11.60;99.90;;;;;;5145397;27;20409;-46
2022/10/16 00:07:48;;;;;;;7.80;2.50;;;11.60;99.90;;;;;;5139683;27;20429;-45
2022/10/16 00:10:14;;;;;;;7.82;2.67;;;11.60;99.90;;;;;;5150280;27;20209;-45
2022/10/16 00:12:39;;;;;;;9.38;2.70;;;11.60;99.90;;;;;;5156837;27;20101;-47
2022/10/16 00:15:06;;;;;;;7.95;2.70;;;11.60;99.90;;;;;;5137965;27;20042;-45
2022/10/16 00:17:32;;;;;;;7.65;2.78;;;11.70;99.90;;;;;;5138800;27;20491;-47
2022/10/16 00:19:57;;;;;;;10.27;2.30;;;11.70;99.90;;;;;;5156209;27;20050;-44
2022/10/16 00:22:23;;;;;;;9.88;2.80;;;11.70;99.90;;;;;;5147939;27;20045;-45
2022/10/16 00:24:49;;;;;;;11.55;3.13;;;11.70;99.90;;;;;;5143270;27;20049;-47
2022/10/16 00:27:16;;;;;;;9.25;2.80;;;11.70;99.90;;;;;;5157462;27;20505;-48
2022/10/16 00:29:42;;;;;;;7.30;3.20;;;11.70;99.90;;;;;;5149799;27;20150;-49
2022/10/16 00:32:08;;;;;;;7.00;2.50;;;11.80;99.90;;;;;;5146590;27;20043;-47
2022/10/16 00:34:35;;;;;;;10.93;2.47;;;11.80;99.90;;;;;;5139921;27;20048;-48
2022/10/16 00:37:00;;;;;;;5.88;1.92;;;11.80;99.90;;;;;;5157436;27;20478;-49
2022/10/16 00:39:26;;;;;;;6.93;2.13;;;11.80;99.90;;;;;;5143531;27;20706;-48
2022/10/16 00:41:52;;;;;;;7.88;2.50;;;11.90;99.90;;;;;;5130322;27;20046;-50
2022/10/16 00:44:44;;;;;;;4.53;2.00;;;11.90;99.90;;;;;;5156241;27;20073;-47
2022/10/16 00:47:12;;;;;;;10.55;2.50;;;11.90;99.90;;;;;;5133630;27;20050;-47
2022/10/16 00:49:38;;;;;;;8.85;2.72;;;12.00;99.90;;;;;;5147968;27;20380;-44
2022/10/16 00:52:05;;;;;;;8.55;2.40;;;11.90;99.90;;;;;;5152708;27;20038;-47
2022/10/16 00:54:33;;;;;;;6.30;2.22;;;12.00;99.90;;;;;;5136255;27;20055;-47
2022/10/16 00:57:03;;;;;;;7.68;2.20;;;12.00;99.90;;;;;;5156940;27;20045;-44
2022/10/16 00:59:33;;;;;;;6.80;2.45;;;12.00;99.90;;;;;;5144700;27;20072;-50
2022/10/16 01:01:59;;;;;;;8.98;2.60;;;12.00;99.90;;;;;;5154966;27;20105;-48
2022/10/16 01:04:28;;;;;;;11.82;4.60;;;12.00;99.90;;;;;;5135072;27;20050;-48
2022/10/16 01:06:57;;;;;;;4.78;2.47;;;12.00;99.90;;;;;;5152805;27;20042;-46
2022/10/16 01:09:36;;;;;;;7.13;2.40;;;12.00;99.90;;;;;;5130588;27;20099;-48
2022/10/16 01:12:33;;;;;;;9.27;2.92;;;12.00;99.90;;;;;;5156765;27;20142;-46
2022/10/16 01:15:11;;;;;;;8.93;2.67;;;12.00;99.90;;;;;;5152227;27;20042;-44
2022/10/16 01:17:51;;;;;;;8.48;2.67;;;12.00;99.90;;;;;;5155813;27;20121;-47
2022/10/16 01:20:28;;;;;;;7.78;2.60;;;12.00;99.90;;;;;;5155626;27;20097;-44
2022/10/16 01:23:36;;;;;;;6.50;2.88;;;12.10;99.90;;;;;;5150251;27;20042;-44
2022/10/16 01:26:24;;;;;;;6.65;3.03;;;12.00;99.90;;;;;;5037433;28;20517;-45
2022/10/16 01:29:11;;;;;;;7.50;2.80;;;12.00;99.90;;;;;;5037065;28;20044;-50
2022/10/16 01:31:40;;;;;;;9.73;2.38;;;12.00;99.90;;;;;;5050797;28;20053;-48
2022/10/16 01:34:18;;;;;;;7.18;2.90;;;12.00;99.90;;;;;;5050696;28;20054;-49
2022/10/16 01:37:16;;;;;;;9.63;3.80;;;12.10;99.90;;;;;;5049908;28;20060;-44
2022/10/16 01:39:45;;;;;;;9.82;2.85;;;12.10;99.90;;;;;;5044005;28;20053;-46
2022/10/16 01:42:20;;;;;;;9.82;3.33;;;12.10;99.90;;;;;;5044164;28;20063;-46
2022/10/16 01:44:48;;;;;;;11.20;2.80;;;12.00;99.90;;;;;;5051439;28;20428;-49
2022/10/16 01:47:15;;;;;;;6.63;2.75;;;12.10;99.90;;;;;;5029069;28;20148;-49
2022/10/16 01:49:43;;;;;;;8.18;2.92;;;12.10;99.90;;;;;;5040767;28;20070;-49
2022/10/16 01:52:16;;;;;;;5.93;3.05;;;12.00;99.90;;;;;;5049627;28;20506;-45
2022/10/16 01:54:43;;;;;;;;;;;12.10;99.90;;;;;;5041885;28;20056;-45
2022/10/16 01:57:10;;;;;;;6.53;2.58;;;12.10;99.90;;;;;;5050727;28;19978;-45
2022/10/16 01:59:41;;;;;;;6.63;2.67;;;12.10;99.90;;;;;;5043010;28;20945;-49
2022/10/16 02:02:11;;;;;;;5.18;2.42;;;12.10;99.90;;;;;;5059321;27;20084;-45
2022/10/16 02:04:46;;;;;;;8.05;3.00;;;12.10;99.90;;;;;;5142705;27;20390;-48
2022/10/16 02:07:12;;;;;;;6.30;2.42;;;12.10;99.90;;;;;;5133273;27;20061;-51
2022/10/16 02:09:38;;;;;;;10.27;2.55;;;12.10;99.90;;;;;;5147780;27;20504;-47
2022/10/16 02:12:32;;;;;;;8.20;2.97;;;12.00;99.90;;;;;;5150587;27;20043;-48
2022/10/16 02:14:57;;;;;;;6.60;2.72;;;12.00;99.90;;;;;;5151258;27;20460;-44
2022/10/16 02:17:24;;;;;;;7.00;2.88;;;12.00;99.90;;;;;;5155506;27;20046;-50
2022/10/16 02:19:53;;;;;;;7.50;2.97;;;12.00;99.90;;;;;;5141342;27;20471;-47
2022/10/16 02:22:42;;;;;;;5.15;2.67;;;12.10;99.90;;;;;;5155883;27;20921;-49
2022/10/16 02:25:15;;;;;;;7.97;3.03;;;12.10;99.90;;;;;;5141226;27;20675;-48
2022/10/16 02:27:57;;;;;;;4.87;2.53;;;12.00;99.90;;;;;;5136649;27;20099;-48
2022/10/16 02:30:50;;;;;;;7.70;3.30;;;12.00;99.90;;;;;;5155377;27;20046;-46
2022/10/16 02:33:17;;;;;;;7.03;3.25;;;11.90;99.90;;;;;;5155925;27;20459;-49
2022/10/16 02:35:46;;;;;;;5.70;2.90;;;12.00;99.90;;;;;;5136705;27;20089;-46
2022/10/16 02:38:13;;;;;;;8.45;3.10;;;11.90;99.90;;;;;;5155879;27;20106;-49
2022/10/16 02:40:40;;;;;;;6.75;2.85;;;11.90;99.90;;;;;;5159302;27;20087;-50
2022/10/16 02:43:06;;;;;;;8.18;3.25;;;11.90;99.90;;;;;;5160127;27;20057;-51
2022/10/16 02:45:32;;;;;;;6.97;3.08;;;11.90;99.90;;;;;;5159039;27;20436;-50
2022/10/16 02:47:58;;;;;;;7.22;3.10;;;11.90;99.90;;;;;;5141307;27;20050;-46
2022/10/16 02:50:24;;;;;;;5.00;2.80;;;11.90;99.90;;;;;;5158018;27;20053;-47
2022/10/16 02:52:51;;;;;;;4.95;2.58;;;11.90;99.90;;;;;;5158847;27;20121;-50
2022/10/16 02:55:16;;;;;;;7.20;2.58;;;11.90;99.90;;;;;;5158699;27;20061;-49
2022/10/16 02:57:42;;;;;;;4.72;2.40;;;11.80;99.90;;;;;;5158660;27;20524;-47
2022/10/16 03:00:11;;;;;;;5.30;2.78;;;11.80;99.90;;;;;;5153515;27;20049;-50
2022/10/16 03:02:37;;;;;;;6.38;3.08;;;11.90;99.90;;;;;;5159443;27;20050;-46
2022/10/16 03:05:03;;;;;;;5.28;2.97;;;11.90;99.90;;;;;;5158945;27;20042;-48
2022/10/16 03:07:29;;;;;;;7.00;3.20;;;11.90;99.90;;;;;;5158712;27;20043;-49
2022/10/16 03:09:55;;;;;;;7.30;3.00;;;11.90;99.90;;;;;;5116417;27;20065;-52
2022/10/16 03:12:21;;;;;;;4.68;2.75;;;11.80;99.90;;;;;;5159375;27;20582;-46
2022/10/16 03:14:47;;;;;;;4.70;3.00;;;11.90;99.90;;;;;;5158502;27;20054;-44
2022/10/16 03:17:13;;;;;;;6.43;3.35;;;11.80;99.90;;;;;;5158793;27;20110;-48
2022/10/16 03:19:38;;;;;;;10.38;3.70;;;11.80;99.90;;;;;;5157463;27;20054;-44
2022/10/16 03:22:04;;;;;;;5.82;2.90;;;11.80;99.90;;;;;;5158860;27;20508;-51
2022/10/16 03:24:30;;;;;;;7.03;2.65;;;11.80;99.90;;;;;;5157986;27;20559;-45
2022/10/16 03:26:55;;;;;;;5.55;3.05;;;11.90;99.90;;;;;;5159278;27;20042;-48
2022/10/16 03:29:21;;;;;;;7.45;2.67;;;11.80;99.90;;;;;;5158326;27;20461;-48
2022/10/16 03:31:49;;;;;;;4.97;2.50;;;11.90;99.90;;;;;;5158388;27;20038;-47
2022/10/16 03:34:15;;;;;;;5.65;2.25;;;11.90;99.90;;;;;;5157652;27;20058;-48
2022/10/16 03:36:40;;;;;;;4.40;2.50;;;11.80;99.90;;;;;;5144864;27;20117;-51
2022/10/16 03:39:06;;;;;;;5.85;2.92;;;11.90;99.90;;;;;;5158589;27;20075;-48
2022/10/16 03:41:31;;;;;;;5.20;2.65;;;11.90;99.90;;;;;;5140297;27;20407;-46
2022/10/16 03:43:57;;;;;;;5.25;3.17;;;11.90;99.90;;;;;;5157082;27;20050;-48
2022/10/16 03:46:23;;;;;;;5.47;2.78;;;11.80;99.90;;;;;;5145185;27;20050;-44
2022/10/16 03:48:48;;;;;;;5.28;2.33;;;11.80;99.90;;;;;;5157619;27;20482;-45
2022/10/16 03:51:14;;;;;;;4.90;2.70;;;11.80;99.90;;;;;;5158649;27;20098;-49
2022/10/16 03:53:40;;;;;;;6.57;2.80;;;11.80;99.90;;;;;;5157333;27;20046;-48
2022/10/16 03:56:06;;;;;;;5.47;2.70;;;11.80;99.90;;;;;;5158837;27;20671;-50
2022/10/16 03:58:32;;;;;;;4.18;2.17;;;11.80;99.90;;;;;;5158516;27;20042;-50
2022/10/16 04:00:57;;;;;;;5.93;2.28;;;11.80;99.90;;;;;;5151342;27;20103;-46
2022/10/16 04:03:23;;;;;;;6.75;3.05;;;11.80;99.90;;;;;;5149928;27;20038;-47
2022/10/16 04:05:49;;;;;;;7.03;2.90;;;11.80;99.90;;;;;;5157367;27;20501;-47
2022/10/16 04:08:15;;;;;;;10.48;2.75;;;11.80;99.90;;;;;;5149785;27;20049;-48
2022/10/16 04:10:43;;;;;;;7.65;2.78;;;11.70;99.90;;;;;;5150963;27;20074;-50
2022/10/16 04:13:09;;;;;;;10.57;3.28;;;11.80;99.90;;;;;;5137541;27;20488;-51
2022/10/16 04:15:34;;;;;;;5.15;3.40;;;11.70;99.90;;;;;;5157611;27;20046;-46
2022/10/16 04:18:00;;;;;;;5.70;2.92;;;11.80;99.90;;;;;;5157035;27;20471;-49
2022/10/16 04:20:26;;;;;;;7.22;3.45;;;11.80;99.90;;;;;;5157320;27;20161;-51
2022/10/16 04:22:51;;;;;;;5.15;3.05;;;11.80;99.90;;;;;;5157538;27;20153;-48
2022/10/16 04:25:17;;;;;;;6.65;3.60;;;11.90;99.90;;;;;;5156261;27;20045;-48
2022/10/16 04:27:43;;;;;;;6.70;2.97;;;11.90;99.90;;;;;;5157380;27;20124;-48
2022/10/16 04:30:10;;;;;;;5.75;3.10;;;11.90;99.90;;;;;;5155515;27;20107;-45
2022/10/16 04:32:36;;;;;;;7.15;3.58;;;12.00;99.90;;;;;;5156110;27;20049;-49
2022/10/16 04:35:02;;;;;;;6.95;3.20;;;12.00;99.90;;;;;;5148037;27;20054;-47
2022/10/16 04:37:28;;;;;;;6.88;3.13;;;12.00;99.90;;;;;;5157532;27;20499;-44
2022/10/16 04:39:54;;;;;;;7.53;3.28;;;12.00;99.90;;;;;;5156460;27;20045;-47
2022/10/16 04:42:20;;;;;;;5.45;2.88;;;12.00;99.90;;;;;;5156695;27;20503;-49
2022/10/16 04:44:46;;;;;;;5.07;2.63;;;12.00;99.90;;;;;;5148885;27;20093;-49
2022/10/16 04:47:13;;;;;;;7.95;3.67;;;12.00;99.90;;;;;;5129584;27;20133;-49
2022/10/16 04:49:38;;;;;;;6.05;3.50;;;12.00;99.90;;;;;;5144414;27;20095;-47
2022/10/16 04:52:04;;;;;;;5.03;3.38;;;12.00;99.90;;;;;;5157750;27;20505;-46
2022/10/16 04:54:30;;;;;;;7.47;3.50;;;12.00;99.90;;;;;;5151895;27;20042;-49
2022/10/16 04:56:56;;;;;;;7.70;3.83;;;12.00;99.90;;;;;;5155859;27;20123;-46
2022/10/16 04:59:22;;;;;;;8.23;3.95;;;12.00;99.90;;;;;;5156681;27;20068;-50
2022/10/16 05:01:48;;;;;;;8.85;4.35;;;11.90;99.90;;;;;;5137529;27;20415;-48
2022/10/16 05:04:14;;;;;;;6.90;3.90;;;12.00;99.90;;;;;;5136029;27;20564;-44
2022/10/16 05:06:41;;;;;;;9.77;4.40;;;12.00;99.90;;;;;;5150822;27;20117;-49
2022/10/16 05:09:07;;;;;;;9.85;5.10;;;12.00;99.90;;;;;;5136147;27;20106;-48
2022/10/16 05:11:33;;;;;;;9.10;4.50;;;12.00;99.90;;;;;;5156796;27;20053;-47
2022/10/16 05:13:59;;;;;;;6.55;3.72;;;12.00;99.90;;;;;;5137914;27;20042;-47
2022/10/16 05:16:25;;;;;;;9.82;4.57;;;12.00;99.90;;;;;;5155983;27;20218;-47
2022/10/16 05:18:54;;;;;;;7.13;4.68;;;12.00;99.90;;;;;;5147797;27;20480;-51
2022/10/16 05:21:20;;;;;;;9.32;4.43;;;12.00;99.90;;;;;;5149978;27;20038;-48
2022/10/16 05:23:46;;;;;;;7.32;4.07;;;12.00;99.90;;;;;;5151500;27;20057;-47
2022/10/16 05:26:12;;;;;;;9.38;4.47;;;12.10;99.90;;;;;;5157007;27;20491;-46
2022/10/16 05:28:37;;;;;;;9.20;4.43;;;12.10;99.90;;;;;;5153935;27;20042;-47
2022/10/16 05:31:08;;;;;;;10.05;4.70;;;12.00;99.90;;;;;;5151320;27;20125;-49
2022/10/16 05:33:34;;;;;;;6.22;4.45;;;12.10;99.90;;;;;;5137685;27;20326;-48
2022/10/16 05:36:08;;;;;;;9.25;4.82;;;12.10;99.90;;;;;;5140669;27;20261;-47
2022/10/16 05:38:35;;;;;;;6.22;4.50;;;12.10;99.90;;;;;;5146494;27;20054;-47
2022/10/16 05:41:01;;;;;;;8.80;4.95;;;12.10;99.90;;;;;;5156412;27;20143;-49
2022/10/16 05:43:28;;;;;;;6.88;4.70;;;12.10;99.90;;;;;;5137325;27;20117;-49
2022/10/16 05:46:05;;;;;;;6.75;4.30;;;12.10;99.90;;;;;;5156276;27;20149;-50
2022/10/16 05:48:31;;;;;;;5.85;4.38;;;12.10;99.90;;;;;;5108855;27;20145;-46
2022/10/16 05:51:03;;;;;;;11.30;5.15;;;12.10;99.90;;;;;;5154664;27;20038;-48
2022/10/16 05:53:31;;;;;;;8.60;4.45;;;12.10;99.90;;;;;;5155444;27;20094;-43
2022/10/16 05:55:57;;;;;;;7.85;4.45;;;12.10;99.90;;;;;;5155622;27;20551;-50
2022/10/16 05:58:23;;;;;;;9.43;4.47;;;12.10;99.90;;;;;;5155741;27;20094;-49
2022/10/16 06:00:57;;;;;;;9.40;4.38;;;12.10;99.90;;;;;;5136882;27;20070;-44
2022/10/16 06:03:23;;;;;;;5.97;4.40;;;12.10;99.90;;;;;;5156073;27;20054;-46
2022/10/16 06:05:49;;;;;;;7.78;4.47;;;12.10;99.90;;;;;;5156240;27;20049;-46
2022/10/16 06:08:15;;;;;;;5.55;3.70;;;12.10;99.90;;;;;;5147917;27;20137;-46
2022/10/16 06:10:40;;;;;;;5.80;4.10;;;12.10;99.90;;;;;;5155568;27;20046;-47
2022/10/16 06:13:06;;;;;;;7.82;4.13;;;12.10;99.90;;;;;;5136833;27;20499;-50
2022/10/16 06:15:32;;;;;;;8.38;4.38;;;12.10;99.90;;;;;;5161174;27;20077;-46
2022/10/16 06:17:57;;;;;;;7.43;3.92;;;12.20;99.90;;;;;;5160433;27;20161;-49
2022/10/16 06:20:23;;;;;;;7.03;4.13;;;12.10;99.90;;;;;;5153742;27;20082;-46
2022/10/16 06:22:48;;;;;;;7.88;3.83;;;12.20;99.90;;;;;;5133768;27;20044;-44
2022/10/16 06:25:14;;;;;;;7.53;4.13;;;12.20;99.90;;;;;;5138978;27;20050;-45
2022/10/16 06:27:40;;;;;;;8.45;3.50;;;12.20;99.90;;;;;;5154072;27;20042;-48
2022/10/16 06:30:07;;;;;;;6.05;4.05;;;12.20;99.90;;;;;;5160364;27;20086;-51
2022/10/16 06:32:32;;;;;;;6.53;3.70;;;12.20;99.90;;;;;;5159807;27;20056;-49
2022/10/16 06:34:58;;;;;;;7.93;3.85;;;12.30;99.90;;;;;;5159289;27;20042;-50
2022/10/16 06:37:24;;;;;;;7.82;4.25;;;12.20;99.90;;;;;;5159822;27;20559;-45
2022/10/16 06:39:52;;;;;;;7.43;3.83;;;12.30;99.90;;;;;;5159276;27;20275;-46
2022/10/16 06:42:18;;;;;;;5.57;4.22;;;12.20;99.90;;;;;;5146437;27;20515;-45
2022/10/16 06:44:43;;;;;;;10.80;4.80;;;12.20;99.90;;;;;;5157567;27;20050;-50
2022/10/16 06:47:09;;;;;;;7.75;4.25;;;12.20;99.90;;;;;;5160361;27;20049;-49
2022/10/16 06:49:35;;;;;;;8.60;4.50;;;12.20;99.90;;;;;;5159789;27;20119;-44
2022/10/16 06:52:01;;;;;;;7.55;4.63;;;12.20;99.90;;;;;;5160772;27;20452;-46
2022/10/16 06:54:27;;;;;;;9.50;4.50;;;12.20;99.90;;;;;;5158823;27;20502;-47
2022/10/16 06:56:54;;;;;;;9.52;4.50;;;12.20;99.90;;;;;;5160326;27;20121;-46
2022/10/16 06:59:20;;;;;;;8.40;4.53;;;12.20;99.90;;;;;;5145436;27;20050;-47
2022/10/16 07:01:46;;;;;;;8.00;3.83;;;12.20;99.90;;;;;;5159744;27;20045;-47
2022/10/16 07:04:12;;;;;;;7.90;3.85;;;12.20;99.90;;;;;;5140255;27;20050;-49
2022/10/16 07:06:38;;;;;;;9.27;4.25;;;12.20;99.90;;;;;;5159513;27;20094;-49
2022/10/16 07:09:06;;;;;;;6.13;3.33;;;12.20;99.90;;;;;;5145653;27;20058;-45
2022/10/16 07:11:33;;;;;;;9.73;3.85;;;12.20;99.90;;;;;;5146258;27;20053;-50
2022/10/16 07:13:59;;;;;;;6.05;3.72;;;12.20;99.90;;;;;;5140390;27;20142;-48
2022/10/16 07:16:27;;;;;;;10.77;4.43;;;12.30;99.90;;;;;;5139880;27;20042;-47
2022/10/16 07:18:58;;;;;;;9.30;3.90;;;12.20;99.90;;;;;;5158298;27;20492;-45
2022/10/16 07:21:28;;;;;;;8.40;3.65;;;12.30;99.90;;;;;;5158166;27;20132;-46
2022/10/16 07:23:59;;;;;;;7.60;3.42;;;12.30;99.90;;;;;;5158068;27;20399;-46
2022/10/16 07:26:26;;;;;;;8.25;5.22;;;12.40;99.90;;;;;;5150567;27;20052;-48
2022/10/16 07:28:52;;;;;;;7.70;5.22;;;12.40;99.90;;;;;;5158355;27;20075;-47
2022/10/16 07:31:19;;;;;;;6.20;3.78;;;12.50;99.90;;;;;;5159081;27;20050;-48
2022/10/16 07:33:47;;;;;;;7.18;5.15;;;12.60;99.90;;;;;;5158069;27;20597;-45
2022/10/16 07:36:15;;;;;;;7.30;4.45;;;12.70;99.90;;;;;;5144298;27;20499;-48
2022/10/16 07:38:42;;;;;;;7.18;4.05;;;12.80;99.90;;;;;;5158474;27;20054;-50
2022/10/16 07:41:14;;;;;;;6.20;3.97;;;12.90;99.90;;;;;;5154719;27;20050;-48
2022/10/16 07:43:40;;;;;;;6.85;3.88;;;13.00;99.90;;;;;;5150009;27;20057;-44
2022/10/16 07:46:06;;;;;;;7.60;4.43;;;13.00;99.90;;;;;;5145017;27;20149;-50
2022/10/16 07:48:33;;;;;;;5.68;3.42;;;13.00;99.90;;;;;;5157637;27;20042;-49
2022/10/16 07:51:06;;;;;;;6.43;3.83;;;13.00;99.90;;;;;;5157717;27;20518;-43
2022/10/16 07:53:33;;;;;;;6.82;3.60;;;13.00;99.90;;;;;;5157974;27;20173;-46
2022/10/16 07:56:06;;;;;;;9.07;3.72;;;13.00;99.90;;;;;;5139649;27;20516;-50
2022/10/16 07:58:33;;;;;;;8.00;4.05;;;13.00;99.90;;;;;;5157581;27;20046;-48
2022/10/16 08:01:06;;;;;;;10.35;3.75;;;13.00;99.90;;;;;;5143466;27;20046;-47
2022/10/16 08:03:33;;;;;;;11.82;3.53;;;13.00;99.90;;;;;;5157930;27;20042;-46
2022/10/16 08:05:59;;;;;;;6.60;3.13;;;13.00;99.90;;;;;;5158429;27;20049;-47
2022/10/16 08:08:25;;;;;;;8.32;3.42;;;13.00;99.90;;;;;;5154282;27;20037;-50
2022/10/16 08:10:51;;;;;;;5.93;2.63;;;13.20;99.90;;;;;;5155951;27;20074;-49
2022/10/16 08:13:17;;;;;;;5.57;3.10;;;13.30;99.90;;;;;;5156578;27;20134;-48
2022/10/16 08:15:43;;;;;;;5.93;2.72;;;13.40;99.90;;;;;;5157105;27;20046;-49
2022/10/16 08:18:10;;;;;;;8.18;2.53;;;13.40;99.90;;;;;;5154975;27;20090;-47
2022/10/16 08:20:36;;;;;;;6.10;2.72;;;13.50;99.90;;;;;;5135352;27;20054;-50
2022/10/16 08:23:02;;;;;;;5.15;2.60;;;13.60;99.90;;;;;;5154929;27;20227;-49
2022/10/16 08:25:28;;;;;;;5.68;2.35;;;13.60;99.90;;;;;;5147413;27;20129;-47
2022/10/16 08:27:54;;;;;;;7.38;2.10;;;13.70;99.90;;;;;;5156568;27;20046;-46
2022/10/16 08:30:21;;;;;;;7.32;2.63;;;13.70;99.90;;;;;;5156909;27;20070;-50
2022/10/16 08:32:47;;;;;;;6.85;2.42;;;13.90;99.90;;;;;;5156434;27;20105;-47
2022/10/16 08:35:14;;;;;;;9.20;2.70;;;13.90;99.90;;;;;;5157145;27;20050;-46
2022/10/16 08:37:39;;;;;;;7.13;2.50;;;14.00;99.90;;;;;;5143038;27;20481;-50
2022/10/16 08:40:15;;;;;;;6.78;2.60;;;14.00;99.90;;;;;;5156518;27;20049;-49
2022/10/16 08:42:59;;;;;;;10.32;2.95;;;14.00;99.90;;;;;;5156377;27;20087;-49
2022/10/16 08:45:44;;;;;;;9.02;2.20;;;14.10;99.90;;;;;;5156829;27;20052;-44
2022/10/16 08:48:23;;;;;;;9.05;2.40;;;14.20;99.90;;;;;;5150101;27;20057;-50
2022/10/16 08:50:51;;;;;;;10.27;2.90;;;14.30;99.90;;;;;;5155727;27;20487;-48
2022/10/16 08:53:27;;;;;;;6.13;1.98;;;14.30;99.90;;;;;;5155810;27;20042;-46
2022/10/16 08:55:53;;;;;;;7.90;2.10;;;14.40;99.90;;;;;;5147592;27;20046;-51
2022/10/16 08:58:27;;;;;;;10.55;3.03;;;14.50;99.90;;;;;;5147740;27;20511;-47
2022/10/16 09:00:58;;;;;;;10.07;2.63;;;14.50;99.90;;;;;;5141179;27;20042;-48
2022/10/16 09:03:53;;;;;;;10.52;2.90;;;14.50;99.90;;;;;;5152615;27;20057;-48
2022/10/16 09:06:36;;;;;;;8.05;2.70;;;14.50;99.90;;;;;;5138622;27;20051;-49
2022/10/16 09:09:43;;;;;;;8.15;2.30;;;14.70;99.90;;;;;;5152493;27;20050;-45
2022/10/16 09:12:24;;;;;;;9.57;2.45;;;14.80;99.90;;;;;;5040690;28;20079;-47
2022/10/16 09:15:07;;;;;;;10.20;2.63;;;14.90;99.90;;;;;;5050295;28;21066;-46
2022/10/16 09:17:53;;;;;;;8.60;2.10;;;14.90;99.90;;;;;;5041106;28;20565;-45
2022/10/16 09:20:30;;;;;;;10.80;2.53;;;14.90;99.90;;;;;;5050442;28;20131;-49
2022/10/16 09:23:05;;;;;;;14.40;3.72;;;15.10;99.90;;;;;;5029327;28;20652;-49
2022/10/16 09:25:32;;;;;;;7.93;2.58;;;15.10;99.90;;;;;;5029019;28;20053;-48
2022/10/16 09:27:58;;;;;;;14.50;5.80;;;15.20;99.90;;;;;;5031240;28;20089;-50
2022/10/16 09:30:28;;;;;;;14.52;4.38;;;15.20;99.90;;;;;;5048867;28;20276;-48
2022/10/16 09:32:57;;;;;;;11.57;3.63;;;15.00;99.90;;;;;;5048291;28;20606;-49
2022/10/16 09:35:31;;;;;;;8.55;2.50;;;15.10;99.90;;;;;;5034030;28;20096;-48
2022/10/16 09:37:57;;;;;;;11.05;2.55;;;15.10;99.90;;;;;;5043727;28;20071;-47
2022/10/16 09:40:37;;;;;;;11.82;2.70;;;15.10;99.90;;;;;;5043451;28;20057;-49
2022/10/16 09:43:30;;;;;;;15.10;4.50;;;15.10;99.90;;;;;;5037182;28;20049;-51
2022/10/16 09:45:56;;;;;;;;;;;15.20;99.90;;;;;;5086338;27;20054;-50
2022/10/16 09:48:22;;;;;;;11.63;3.05;;;15.20;99.90;;;;;;5158268;27;20282;-46
2022/10/16 09:51:00;;;;;;;7.38;2.70;;;15.20;99.90;;;;;;5149931;27;20093;-47
2022/10/16 09:53:43;;;;;;;14.10;3.67;;;15.20;99.90;;;;;;5145794;27;20382;-50
2022/10/16 09:56:21;;;;;;;13.38;3.38;;;15.20;99.90;;;;;;5156277;27;20054;-49
2022/10/16 09:58:52;;;;;;;11.88;3.05;;;15.30;99.90;;;;;;5132984;27;20043;-51
2022/10/16 10:01:18;;;;;;;11.40;2.58;;;15.30;99.90;;;;;;5150449;27;20038;-49
2022/10/16 10:03:45;;;;;;;14.75;4.20;;;15.30;99.90;;;;;;5148608;27;20129;-50
2022/10/16 10:06:22;;;;;;;16.15;4.15;;;15.20;99.90;;;;;;5158772;27;20046;-48
2022/10/16 10:08:55;;;;;;;14.50;3.75;;;15.30;99.90;;;;;;5151275;27;20078;-47
2022/10/16 10:11:40;;;;;;;;;;;15.30;99.90;;;;;;5160653;27;20046;-52
2022/10/16 10:14:18;;;;;;;11.23;2.70;;;15.40;99.90;;;;;;5161011;27;19930;-52
2022/10/16 10:16:44;;;;;;;8.68;2.55;;;15.50;99.90;;;;;;5155900;27;20176;-48
2022/10/16 10:19:23;;;;;;;12.63;2.58;;;15.50;99.90;;;;;;5150012;27;20451;-50
2022/10/16 10:21:51;;;;;;;12.27;3.33;;;15.40;99.90;;;;;;5160131;27;20118;-46
2022/10/16 10:24:18;;;;;;;13.07;2.55;;;15.50;99.90;;;;;;5159726;27;20073;-48
2022/10/16 10:27:10;;;;;;;13.05;3.58;;;15.50;99.90;;;;;;5145321;27;20603;-48
2022/10/16 10:30:04;;;;;;;15.35;3.92;;;15.60;99.90;;;;;;5159884;27;20050;-50
2022/10/16 10:32:55;;;;;;;10.75;2.88;;;15.70;99.90;;;;;;5150668;27;20093;-53
2022/10/16 10:35:40;;;;;;;14.25;3.38;;;15.70;99.90;;;;;;5128414;27;20491;-49
2022/10/16 10:38:30;;;;;;;12.95;3.45;;;15.70;99.90;;;;;;5152891;27;20046;-46
2022/10/16 10:41:06;;;;;;;13.95;3.05;;;15.80;99.90;;;;;;5156846;27;20720;-51
2022/10/16 10:44:03;;;;;;;10.52;3.25;;;15.80;99.90;;;;;;5138703;27;20058;-50
2022/10/16 10:46:50;;;;;;;11.85;2.88;;;15.80;99.90;;;;;;5152559;27;20134;-47
2022/10/16 10:49:56;;;;;;;12.52;3.00;;;15.80;99.90;;;;;;5156474;27;20049;-50
2022/10/16 10:52:51;;;;;;;14.68;4.50;;;15.80;99.90;;;;;;5139989;27;20050;-50
2022/10/16 10:55:48;;;;;;;11.15;3.20;;;15.80;99.90;;;;;;5158181;27;20244;-47
2022/10/16 10:58:33;;;;;;;11.90;3.25;;;15.80;99.90;;;;;;5052846;28;20071;-46
2022/10/16 11:01:01;;;;;;;17.70;2.67;;;15.90;99.90;;;;;;5053324;28;20053;-49
2022/10/16 11:04:12;;;;;;;15.93;2.67;;;15.80;99.90;;;;;;5052096;28;20064;-50
2022/10/16 11:06:50;;;;;;;15.32;2.58;;;15.80;99.90;;;;;;5046619;28;20049;-52
2022/10/16 11:09:32;;;;;;;14.40;3.58;;;15.90;99.90;;;;;;5052100;28;20146;-49
2022/10/16 11:12:21;;;;;;;14.25;3.42;;;15.90;99.90;;;;;;5040906;28;20048;-49
2022/10/16 11:14:56;;;;;;;11.55;2.50;;;16.00;99.90;;;;;;5039379;28;20601;-50
2022/10/16 11:17:38;;;;;;;14.15;2.85;;;16.00;99.90;;;;;;5036575;28;20175;-49
2022/10/16 11:20:21;;;;;;;16.73;3.58;;;16.10;99.90;;;;;;5052229;28;20088;-48
2022/10/16 11:23:07;;;;;;;13.75;3.17;;;16.00;99.90;;;;;;5052856;28;20549;-49
2022/10/16 11:25:33;;;;;;;15.85;3.25;;;16.10;99.90;;;;;;5052345;28;20052;-46
2022/10/16 11:28:02;;;;;;;13.13;3.20;;;16.10;99.90;;;;;;5051169;28;20068;-50
2022/10/16 11:30:31;;;;;;;12.70;2.75;;;16.10;99.90;;;;;;5052405;28;20493;-45
2022/10/16 11:33:11;;;;;;;9.45;2.17;;;16.00;99.90;;;;;;5051872;28;20208;-50
2022/10/16 11:35:55;;;;;;;13.18;2.50;;;16.00;99.90;;;;;;5122789;27;20060;-53
2022/10/16 11:38:30;;;;;;;18.67;2.92;;;16.00;99.90;;;;;;5145168;27;20044;-51
2022/10/16 11:41:01;;;;;;;14.27;3.00;;;16.00;99.90;;;;;;5157887;27;20629;-48
2022/10/16 11:43:42;;;;;;;16.08;3.08;;;16.00;99.90;;;;;;5156025;27;20050;-51
2022/10/16 11:46:17;;;;;;;9.30;2.53;;;16.10;99.90;;;;;;5138488;27;20400;-49
2022/10/16 11:48:49;;;;;;;10.55;2.75;;;16.10;99.90;;;;;;5150254;27;20048;-50
2022/10/16 11:51:30;;;;;;;13.10;3.25;;;16.10;99.90;;;;;;5158738;27;20495;-46
2022/10/16 11:54:06;;;;;;;13.15;2.83;;;16.10;99.90;;;;;;5138547;27;20038;-47
2022/10/16 11:56:36;;;;;;;11.85;3.15;;;16.10;99.90;;;;;;5157890;27;20112;-51
2022/10/16 11:59:17;;;;;;;8.65;2.50;;;16.00;99.90;;;;;;5156892;27;20486;-50
2022/10/16 12:02:15;;;;;;;11.88;2.63;;;16.00;99.90;;;;;;5156649;27;20046;-51
2022/10/16 12:04:49;;;;;;;13.52;2.75;;;16.10;99.90;;;;;;5062153;28;20178;-49
2022/10/16 12:07:26;;;;;;;12.75;2.80;;;16.10;99.90;;;;;;5072489;28;20064;-53
2022/10/16 12:09:52;;;;;;;19.75;3.40;;;16.10;99.90;;;;;;5064488;28;20379;-51
2022/10/16 12:12:36;;;;;;;18.10;3.47;;;16.10;99.90;;;;;;5071751;28;20043;-49
2022/10/16 12:15:22;;;;;;;15.45;3.58;;;16.30;99.90;;;;;;5073260;28;20561;-48
2022/10/16 12:17:48;;;;;;;15.15;3.63;;;16.40;99.90;;;;;;5068863;28;20164;-51
2022/10/16 12:20:17;;;;;;;15.35;3.55;;;16.60;99.90;;;;;;5065395;28;20045;-48
2022/10/16 12:22:53;;;;;;;14.90;3.15;;;16.70;99.90;;;;;;5062592;28;20164;-51
2022/10/16 12:25:37;;;;;;;12.63;3.33;;;16.80;99.90;;;;;;5061596;28;20075;-48
2022/10/16 12:28:16;;;;;;;15.98;3.53;;;16.90;99.90;;;;;;5066989;28;20139;-48
2022/10/16 12:30:51;;;;;;;15.55;4.28;;;16.90;99.90;;;;;;5056796;28;20052;-51
2022/10/16 12:33:23;;;;;;;13.05;3.45;;;17.10;99.90;;;;;;5058598;28;20121;-52
2022/10/16 12:35:50;;;;;;;14.30;2.73;;;17.20;99.90;;;;;;5053842;28;20079;-47
2022/10/16 12:38:20;;;;;;;13.07;3.03;;;17.30;99.90;;;;;;5069795;28;20888;-48
2022/10/16 12:41:02;;;;;;;14.30;3.28;;;17.40;99.90;;;;;;5059177;27;20040;-48
2022/10/16 12:43:35;;;;;;;13.68;3.63;;;17.50;99.90;;;;;;5117098;27;20050;-55
2022/10/16 12:46:21;;;;;;;17.05;2.90;;;17.60;99.90;;;;;;5135759;27;20555;-51
2022/10/16 12:48:48;;;;;;;12.18;3.03;;;17.60;99.90;;;;;;5150769;27;20053;-52
2022/10/16 12:51:35;;;;;;;13.43;3.10;;;17.60;99.90;;;;;;5158357;27;20042;-45
2022/10/16 12:54:04;;;;;;;15.68;3.83;;;17.70;99.90;;;;;;5156953;27;20153;-51
2022/10/16 12:56:51;;;;;;;13.70;3.20;;;17.50;99.90;;;;;;5145888;27;20043;-48
2022/10/16 12:59:31;;;;;;;15.27;3.45;;;17.50;99.90;;;;;;5140162;27;20505;-52
2022/10/16 13:02:28;;;;;;;14.35;3.22;;;17.50;99.90;;;;;;5138938;27;20049;-49
2022/10/16 13:05:22;;;;;;;14.25;2.67;;;17.40;99.90;;;;;;5144361;27;20065;-49
2022/10/16 13:08:11;;;;;;;12.32;3.30;;;17.40;99.90;;;;;;5043843;28;20056;-52